createdAt,value
2022-08-26T00:00:58.986Z,1.80
2022-08-26T00:04:01.299Z,1.73
2022-08-26T00:07:03.811Z,1.60
2022-08-26T00:13:10.598Z,1.55
2022-08-26T00:16:12.752Z,1.95
2022-08-26T00:19:19.339Z,1.90
2022-08-26T00:22:22.314Z,2.47
2022-08-26T00:25:24.526Z,1.70
2022-08-26T00:28:26.972Z,1.95
2022-08-26T00:31:31.046Z,1.90
2022-08-26T00:34:35.205Z,2.10
2022-08-26T00:37:37.921Z,1.90
2022-08-26T00:40:47.301Z,2.05
2022-08-26T00:43:50.981Z,1.90
2022-08-26T00:47:02.506Z,1.80
2022-08-26T00:50:08.889Z,1.60
2022-08-26T00:53:12.930Z,1.70
2022-08-26T00:56:26.805Z,1.60
2022-08-26T00:59:33.048Z,1.92
2022-08-26T01:02:35.559Z,1.50
2022-08-26T01:05:41.397Z,1.58
2022-08-26T01:08:43.661Z,1.70
2022-08-26T01:11:48.746Z,1.48
2022-08-26T01:14:50.877Z,1.50
2022-08-26T01:17:53.175Z,2.65
2022-08-26T01:21:16.535Z,1.83
2022-08-26T01:24:19.684Z,1.73
2022-08-26T01:27:21.826Z,1.60
2022-08-26T01:30:27.586Z,1.38
2022-08-26T01:33:42.451Z,1.40
2022-08-26T01:36:50.588Z,1.88
2022-08-26T01:39:57.339Z,1.63
2022-08-26T01:43:05.790Z,1.48
2022-08-26T01:46:08.799Z,1.52
2022-08-26T01:49:13.906Z,1.63
2022-08-26T01:52:21.778Z,1.33
2022-08-26T01:55:32.447Z,1.52
2022-08-26T01:58:39.791Z,1.55
2022-08-26T02:01:41.824Z,1.30
2022-08-26T02:04:52.535Z,1.63
2022-08-26T02:07:54.576Z,1.73
2022-08-26T02:10:56.645Z,1.60
2022-08-26T02:14:03.732Z,1.63
2022-08-26T02:17:07.880Z,1.50
2022-08-26T02:20:13.421Z,1.70
2022-08-26T02:23:17.011Z,1.52
2022-08-26T02:26:22.653Z,1.65
2022-08-26T02:29:34.409Z,1.50
2022-08-26T02:32:36.413Z,1.95
2022-08-26T02:35:39.202Z,1.70
2022-08-26T02:38:41.205Z,1.58
2022-08-26T02:44:48.064Z,1.50
2022-08-26T02:47:51.405Z,1.73
2022-08-26T02:50:54.297Z,1.50
2022-08-26T02:53:56.351Z,1.45
2022-08-26T02:56:58.393Z,1.25
2022-08-26T03:00:01.325Z,1.50
2022-08-26T03:03:04.184Z,1.80
2022-08-26T03:06:06.448Z,1.67
2022-08-26T03:09:08.966Z,1.23
2022-08-26T03:12:10.979Z,1.67
2022-08-26T03:15:18.651Z,1.63
2022-08-26T03:18:20.664Z,1.05
2022-08-26T03:21:23.190Z,1.30
2022-08-26T03:24:26.492Z,1.20
2022-08-26T03:27:28.500Z,1.33
2022-08-26T03:30:34.814Z,1.55
2022-08-26T03:33:36.833Z,1.63
2022-08-26T03:36:39.147Z,1.30
2022-08-26T03:39:43.675Z,1.20
2022-08-26T03:42:45.685Z,1.40
2022-08-26T03:45:47.757Z,1.30
2022-08-26T03:48:49.784Z,1.30
2022-08-26T03:51:51.783Z,1.40
2022-08-26T03:54:53.804Z,1.38
2022-08-26T03:57:55.846Z,1.50
2022-08-26T04:00:58.415Z,1.30
2022-08-26T04:04:00.900Z,1.38
2022-08-26T04:07:03.385Z,1.40
2022-08-26T04:10:06.105Z,1.55
2022-08-26T04:13:08.321Z,1.17
2022-08-26T04:16:10.720Z,1.23
2022-08-26T04:19:15.165Z,1.38
2022-08-26T04:22:17.177Z,1.17
2022-08-26T04:25:27.066Z,1.33
2022-08-26T04:28:29.725Z,1.10
2022-08-26T04:31:34.537Z,1.42
2022-08-26T04:34:36.621Z,1.33
2022-08-26T04:37:38.722Z,1.30
2022-08-26T04:40:46.821Z,1.30
2022-08-26T04:43:49.077Z,1.33
2022-08-26T04:46:51.696Z,1.65
2022-08-26T04:49:56.960Z,1.50
2022-08-26T04:52:59.646Z,1.85
2022-08-26T04:56:01.818Z,1.70
2022-08-26T04:59:08.177Z,1.70
2022-08-26T05:02:18.984Z,1.50
2022-08-26T05:05:21.011Z,1.30
2022-08-26T05:08:23.575Z,1.33
2022-08-26T05:11:25.605Z,1.20
2022-08-26T05:14:27.644Z,1.17
2022-08-26T05:17:29.675Z,0.95
2022-08-26T05:20:32.494Z,1.02
2022-08-26T05:23:36.002Z,0.93
2022-08-26T05:26:38.059Z,1.20
2022-08-26T05:29:40.817Z,1.25
2022-08-26T05:32:42.825Z,1.45
2022-08-26T05:35:45.893Z,1.30
2022-08-26T05:38:48.338Z,1.48
2022-08-26T05:41:50.557Z,1.23
2022-08-26T05:44:55.653Z,1.80
2022-08-26T05:47:58.164Z,1.75
2022-08-26T05:51:06.657Z,1.52
2022-08-26T05:54:10.321Z,1.48
2022-08-26T05:57:12.734Z,1.40
2022-08-26T06:00:15.149Z,1.73
2022-08-26T06:03:17.188Z,1.20
2022-08-26T06:06:27.947Z,1.25
2022-08-26T06:09:31.091Z,1.30
2022-08-26T06:12:33.424Z,1.98
2022-08-26T06:15:39.725Z,1.58
2022-08-26T06:18:46.705Z,1.27
2022-08-26T06:21:51.339Z,1.10
2022-08-26T06:24:56.369Z,1.00
2022-08-26T06:27:58.381Z,1.30
2022-08-26T06:31:02.698Z,1.00
2022-08-26T06:37:13.844Z,1.30
2022-08-26T06:40:15.981Z,1.45
2022-08-26T06:43:20.003Z,1.08
2022-08-26T06:46:23.189Z,1.08
2022-08-26T06:49:28.105Z,1.45
2022-08-26T06:52:30.144Z,1.17
2022-08-26T06:55:32.154Z,1.20
2022-08-26T06:58:36.569Z,1.23
2022-08-26T07:01:43.035Z,1.00
2022-08-26T07:04:47.728Z,1.10
2022-08-26T07:07:50.072Z,0.90
2022-08-26T07:10:52.106Z,1.00
2022-08-26T07:13:58.114Z,1.00
2022-08-26T07:17:00.105Z,1.27
2022-08-26T07:20:02.210Z,1.25
2022-08-26T07:23:04.221Z,1.38
2022-08-26T07:26:08.051Z,1.50
2022-08-26T07:29:10.520Z,0.93
2022-08-26T07:32:14.780Z,1.10
2022-08-26T07:35:17.121Z,1.80
2022-08-26T07:38:19.277Z,1.00
2022-08-26T07:41:23.570Z,1.15
2022-08-26T07:44:25.627Z,1.13
2022-08-26T07:47:27.666Z,0.90
2022-08-26T07:50:49.411Z,0.90
2022-08-26T07:53:52.735Z,0.95
2022-08-26T07:56:56.027Z,1.13
2022-08-26T07:59:58.857Z,0.88
2022-08-26T08:03:03.217Z,1.10
2022-08-26T08:06:05.371Z,1.10
2022-08-26T08:09:08.797Z,1.15
2022-08-26T08:12:14.287Z,0.90
2022-08-26T08:15:17.706Z,1.27
2022-08-26T08:18:20.513Z,0.95
2022-08-26T08:21:25.095Z,1.23
2022-08-26T08:24:27.157Z,1.30
2022-08-26T08:27:29.167Z,1.08
2022-08-26T08:30:32.164Z,0.70
2022-08-26T08:33:37.116Z,1.00
2022-08-26T08:36:40.543Z,1.20
2022-08-26T08:39:43.708Z,0.70
2022-08-26T08:42:54.695Z,1.05
2022-08-26T08:46:04.328Z,0.90
2022-08-26T08:49:06.478Z,0.80
2022-08-26T08:52:27.314Z,0.80
2022-08-26T08:55:42.890Z,0.90
2022-08-26T08:58:59.332Z,1.40
2022-08-26T09:02:19.461Z,1.13
2022-08-26T09:05:24.421Z,1.08
2022-08-26T09:08:32.047Z,1.05
2022-08-26T09:11:35.519Z,1.00
2022-08-26T09:14:38.377Z,0.75
2022-08-26T09:21:04.784Z,0.80
2022-08-26T09:24:07.740Z,0.68
2022-08-26T09:27:41.429Z,0.98
2022-08-26T09:30:46.452Z,1.00
2022-08-26T09:33:48.649Z,0.98
2022-08-26T09:36:53.224Z,1.00
2022-08-26T09:40:10.919Z,1.25
2022-08-26T09:43:22.393Z,0.73
2022-08-26T09:46:28.018Z,1.10
2022-08-26T09:49:35.709Z,1.00
2022-08-26T09:52:38.381Z,1.05
2022-08-26T09:55:46.264Z,0.95
2022-08-26T09:58:48.373Z,1.00
2022-08-26T10:01:50.447Z,1.10
2022-08-26T10:04:57.491Z,1.05
2022-08-26T10:08:27.289Z,1.20
2022-08-26T10:11:37.836Z,1.50
2022-08-26T10:14:50.999Z,1.50
2022-08-26T10:18:15.088Z,1.70
2022-08-26T10:21:29.897Z,1.48
2022-08-26T10:24:39.468Z,1.15
2022-08-26T10:27:52.782Z,1.15
2022-08-26T10:34:06.993Z,1.65
2022-08-26T10:37:19.196Z,1.27
2022-08-26T10:40:45.586Z,1.40
2022-08-26T10:44:02.786Z,1.73
2022-08-26T10:47:16.279Z,1.30
2022-08-26T10:50:22.309Z,1.33
2022-08-26T10:53:51.735Z,1.48
2022-08-26T10:57:22.286Z,1.52
2022-08-26T11:00:32.646Z,1.67
2022-08-26T11:04:01.564Z,2.15
2022-08-26T11:07:34.586Z,1.77
2022-08-26T11:10:42.487Z,1.60
2022-08-26T11:13:56.352Z,1.25
2022-08-26T11:16:59.633Z,1.27
2022-08-26T11:20:04.640Z,1.58
2022-08-26T11:23:20.301Z,1.38
2022-08-26T11:26:37.715Z,1.77
2022-08-26T11:30:09.250Z,1.75
2022-08-26T11:33:49.619Z,1.40
2022-08-26T11:36:57.819Z,1.65
2022-08-26T11:40:01.511Z,1.58
2022-08-26T11:43:19.465Z,1.60
2022-08-26T11:46:31.339Z,1.52
2022-08-26T11:49:34.221Z,1.67
2022-08-26T11:52:36.520Z,1.67
2022-08-26T11:55:43.141Z,1.85
2022-08-26T11:58:46.718Z,1.48
2022-08-26T12:04:53.879Z,1.40
2022-08-26T12:08:07.131Z,1.60
2022-08-26T12:11:21.961Z,1.30
2022-08-26T12:14:27.336Z,1.40
2022-08-26T12:17:29.849Z,1.40
2022-08-26T12:20:38.790Z,1.60
2022-08-26T12:23:47.492Z,1.40
2022-08-26T12:27:06.034Z,1.67
2022-08-26T12:30:13.907Z,1.38
2022-08-26T12:33:23.032Z,1.40
2022-08-26T12:36:35.192Z,1.23
2022-08-26T12:39:40.518Z,1.17
2022-08-26T12:42:42.518Z,1.48
2022-08-26T12:45:56.842Z,1.30
2022-08-26T12:48:59.576Z,1.17
2022-08-26T12:52:01.839Z,1.35
2022-08-26T12:55:18.962Z,1.35
2022-08-26T12:58:28.588Z,1.50
2022-08-26T13:01:37.607Z,1.48
2022-08-26T13:04:42.442Z,1.23
2022-08-26T13:07:44.498Z,1.40
2022-08-26T13:10:47.394Z,1.40
2022-08-26T13:13:53.441Z,1.40
2022-08-26T13:16:55.609Z,1.75
2022-08-26T13:20:03.307Z,1.35
2022-08-26T13:23:06.002Z,1.40
2022-08-26T13:26:08.001Z,1.15
2022-08-26T13:29:11.205Z,1.52
2022-08-26T13:32:14.284Z,1.58
2022-08-26T13:35:16.368Z,1.40
2022-08-26T13:38:33.218Z,1.35
2022-08-26T13:41:36.045Z,1.20
2022-08-26T13:44:38.131Z,1.30
2022-08-26T13:47:40.152Z,1.13
2022-08-26T13:50:42.149Z,1.63
2022-08-26T13:53:44.361Z,1.38
2022-08-26T13:56:46.394Z,1.23
2022-08-26T13:59:48.410Z,1.50
2022-08-26T14:02:50.431Z,1.08
2022-08-26T14:05:52.866Z,1.55
2022-08-26T14:08:54.892Z,1.30
2022-08-26T14:11:58.928Z,1.50
2022-08-26T14:15:01.958Z,1.73
2022-08-26T14:18:05.721Z,1.40
2022-08-26T14:21:12.602Z,1.30
2022-08-26T14:24:14.673Z,1.35
2022-08-26T14:27:16.708Z,1.20
2022-08-26T14:30:20.236Z,1.60
2022-08-26T14:33:25.799Z,1.50
2022-08-26T14:36:28.549Z,1.60
2022-08-26T14:39:30.613Z,1.70
2022-08-26T14:42:32.868Z,1.20
2022-08-26T14:48:47.222Z,1.30
2022-08-26T14:51:49.658Z,1.70
2022-08-26T14:54:55.003Z,1.50
2022-08-26T14:57:57.569Z,1.70
2022-08-26T15:00:59.621Z,1.50
2022-08-26T15:04:06.316Z,1.60
2022-08-26T15:07:08.497Z,1.35
2022-08-26T15:10:15.765Z,1.63
2022-08-26T15:13:17.783Z,1.88
2022-08-26T15:16:20.220Z,1.60
2022-08-26T15:19:28.575Z,1.42
2022-08-26T15:22:30.585Z,1.50
2022-08-26T15:25:32.679Z,1.50
2022-08-26T15:28:35.608Z,1.63
2022-08-26T15:31:37.758Z,1.48
2022-08-26T15:34:39.815Z,2.03
2022-08-26T15:37:41.835Z,1.50
2022-08-26T15:40:44.444Z,1.55
2022-08-26T15:43:46.475Z,2.08
2022-08-26T15:46:49.814Z,1.60
2022-08-26T15:49:51.911Z,1.70
2022-08-26T15:52:53.948Z,1.88
2022-08-26T15:55:57.317Z,1.60
2022-08-26T15:59:00.775Z,1.48
2022-08-26T16:02:03.569Z,1.50
2022-08-26T16:05:05.967Z,1.55
2022-08-26T16:08:08.423Z,1.50
2022-08-26T16:11:11.849Z,1.50
2022-08-26T16:14:13.856Z,1.50
2022-08-26T16:17:15.899Z,1.33
2022-08-26T16:20:17.962Z,1.35
2022-08-26T16:23:21.070Z,1.90
2022-08-26T16:26:26.835Z,1.42
2022-08-26T16:29:28.880Z,1.80
2022-08-26T16:32:31.429Z,1.95
2022-08-26T16:35:33.775Z,1.70
2022-08-26T16:38:37.282Z,1.83
2022-08-26T16:41:39.383Z,1.90
2022-08-26T16:44:41.393Z,2.08
2022-08-26T16:47:43.445Z,1.70
2022-08-26T16:50:45.724Z,2.05
2022-08-26T16:53:47.756Z,2.10
2022-08-26T16:56:49.801Z,1.95
2022-08-26T16:59:51.829Z,1.90
2022-08-26T17:02:58.505Z,2.10
2022-08-26T17:06:00.814Z,1.88
2022-08-26T17:09:02.885Z,1.58
2022-08-26T17:12:05.031Z,1.85
2022-08-26T17:15:08.513Z,1.88
2022-08-26T17:18:10.565Z,1.90
2022-08-26T17:21:13.517Z,1.88
2022-08-26T17:24:15.640Z,2.60
2022-08-26T17:27:17.648Z,2.10
2022-08-26T17:30:21.035Z,2.40
2022-08-26T17:33:24.601Z,2.45
2022-08-26T17:39:30.350Z,2.30
2022-08-26T17:42:37.602Z,2.10
2022-08-26T17:45:40.553Z,2.10
2022-08-26T17:48:42.575Z,2.00
2022-08-26T17:51:44.619Z,2.08
2022-08-26T17:54:46.665Z,1.90
2022-08-26T17:57:53.576Z,2.10
2022-08-26T18:01:08.236Z,2.20
2022-08-26T18:04:10.403Z,2.17
2022-08-26T18:07:12.733Z,1.98
2022-08-26T18:10:17.127Z,2.20
2022-08-26T18:13:19.149Z,2.40
2022-08-26T18:16:21.493Z,2.83
2022-08-26T18:19:23.541Z,2.40
2022-08-26T18:22:25.756Z,2.83
2022-08-26T18:25:27.794Z,2.50
2022-08-26T18:28:29.799Z,2.50
2022-08-26T18:31:34.625Z,2.67
2022-08-26T18:34:36.661Z,2.60
2022-08-26T18:37:39.004Z,2.70
2022-08-26T18:40:43.669Z,2.45
2022-08-26T18:43:46.105Z,2.70
2022-08-26T18:46:48.184Z,3.33
2022-08-26T18:49:50.223Z,3.10
2022-08-26T18:52:52.254Z,2.85
2022-08-26T18:55:54.298Z,2.80
2022-08-26T18:58:56.304Z,2.70
2022-08-26T19:01:59.016Z,2.22
2022-08-26T19:05:01.249Z,2.70
2022-08-26T19:08:03.481Z,3.28
2022-08-26T19:11:05.526Z,5.22
2022-08-26T19:14:11.120Z,2.13
2022-08-26T19:17:13.175Z,2.30
2022-08-26T19:20:15.270Z,2.53
2022-08-26T19:23:33.601Z,2.40
2022-08-26T19:26:36.243Z,2.15
2022-08-26T19:29:38.292Z,2.47
2022-08-26T19:32:40.303Z,2.10
2022-08-26T19:35:42.755Z,2.40
2022-08-26T19:38:45.789Z,2.28
2022-08-26T19:41:48.128Z,2.90
2022-08-26T19:44:50.144Z,2.30
2022-08-26T19:47:52.583Z,2.45
2022-08-26T19:50:56.274Z,1.90
2022-08-26T19:54:00.595Z,2.30
2022-08-26T20:00:13.421Z,2.30
2022-08-26T20:03:15.956Z,2.30
2022-08-26T20:06:18.607Z,2.40
2022-08-26T20:09:20.670Z,2.38
2022-08-26T20:12:22.796Z,2.13
2022-08-26T20:15:24.984Z,2.45
2022-08-26T20:18:30.559Z,3.45
2022-08-26T20:21:35.527Z,2.70
2022-08-26T20:24:37.569Z,2.00
2022-08-26T20:27:39.580Z,2.45
2022-08-26T20:30:41.592Z,2.10
2022-08-26T20:33:46.380Z,2.22
2022-08-26T20:36:49.996Z,2.47
2022-08-26T20:39:54.985Z,2.40
2022-08-26T20:42:57.058Z,2.47
2022-08-26T20:45:59.876Z,2.50
2022-08-26T20:49:02.567Z,2.38
2022-08-26T20:52:08.021Z,2.38
2022-08-26T20:55:10.139Z,2.53
2022-08-26T20:58:12.149Z,2.33
2022-08-26T21:01:20.603Z,2.25
2022-08-26T21:04:24.891Z,2.53
2022-08-26T21:07:26.917Z,3.10
2022-08-26T21:10:29.641Z,3.10
2022-08-26T21:13:39.187Z,2.80
2022-08-26T21:16:50.741Z,2.67
2022-08-26T21:19:53.544Z,3.08
2022-08-26T21:22:55.566Z,3.05
2022-08-26T21:26:02.170Z,2.78
2022-08-26T21:29:05.130Z,3.03
2022-08-26T21:32:07.204Z,2.95
2022-08-26T21:35:09.912Z,3.20
2022-08-26T21:38:12.004Z,2.97
2022-08-26T21:41:17.818Z,2.67
2022-08-26T21:44:19.807Z,2.78
2022-08-26T21:47:21.861Z,3.15
2022-08-26T21:50:23.880Z,2.90
2022-08-26T21:53:25.902Z,2.60
2022-08-26T21:56:30.026Z,3.03
2022-08-26T22:02:34.073Z,2.90
2022-08-26T22:05:43.088Z,3.00
2022-08-26T22:08:45.125Z,2.53
2022-08-26T22:11:47.528Z,3.30
2022-08-26T22:14:49.547Z,3.10
2022-08-26T22:17:51.554Z,3.20
2022-08-26T22:20:55.171Z,2.70
2022-08-26T22:23:58.100Z,3.45
2022-08-26T22:27:00.379Z,3.23
2022-08-26T22:30:02.386Z,2.90
2022-08-26T22:33:04.558Z,2.92
2022-08-26T22:36:06.830Z,2.95
2022-08-26T22:39:10.478Z,3.20
2022-08-26T22:42:12.700Z,3.53
2022-08-26T22:45:14.746Z,3.33
2022-08-26T22:48:19.382Z,3.70
2022-08-26T22:51:22.432Z,3.08
2022-08-26T22:54:24.690Z,3.17
2022-08-26T22:57:26.734Z,3.90
2022-08-26T23:00:31.839Z,3.33
2022-08-26T23:03:34.601Z,3.30
2022-08-26T23:06:38.084Z,3.45
2022-08-26T23:09:40.097Z,3.58
2022-08-26T23:12:42.106Z,4.10
2022-08-26T23:15:44.836Z,3.60
2022-08-26T23:18:46.844Z,3.75
2022-08-26T23:21:49.478Z,4.15
2022-08-26T23:24:51.470Z,4.28
2022-08-26T23:27:53.481Z,4.20
2022-08-26T23:30:55.484Z,4.47
2022-08-26T23:33:57.513Z,3.92
2022-08-26T23:37:00.911Z,4.40
2022-08-26T23:40:06.718Z,5.18
2022-08-26T23:43:10.358Z,4.47
2022-08-26T23:46:12.469Z,4.32
2022-08-26T23:49:14.564Z,5.05
2022-08-26T23:52:16.572Z,4.88
2022-08-26T23:55:18.647Z,5.03
2022-08-26T23:58:21.199Z,5.47
